Search for airport 
image banner adimage banner adimage banner ad
image banner ad

7PN9 - East Forest Junior/Senior High School

Located in Marienville, United States

ICAO - 7PN9, IATA -

Data provided by Airmate  

General information

Coordinates: N41°28'30" W79°7'34"
Elevation is 1751 feet MSL.
Magnetic variation is -10° East
View others Airports in Pennsylvania

Operational data

Special qualification required
Current time UTC:
Current local time:
Weather at : KDUJ - Dubois Rgnl ( 38 km )
METAR: KDUJ 091353Z AUTO 12005KT 10SM OVC055 06/01 A3001 RMK AO2 SLP172 T00560006
TAF: KDUJ 091120Z 0912/1012 14003KT P6SM VCSH BKN080 FM091500 14007KT 5SM -RA BR OVC010 FM091700 08010KT 3SM RA BR OVC005 FM100000 02008KT 4SM -RA BR OVC005 FM100500 36004KT P6SM BKN006 FM101000 29005KT P6SM BKN010
View NOTAMs / SUP AIP / TFR affecting this airport [VIEW]
Communications frequencies: [VIEW]

Runways:

Airport contact information

Address: Marienville United States

Satellite view of 7PN9